KGCM

Claremore Regional Airport

Claremore, Oklahoma, USA
METAR KGCM 220955Z AUTO 08003KT 7SM CLR 16/16 A3001 RMK AO2
Observed Flight Rules
May-22 @ 09:55 UTC (14 minutes ago) Visual Flight Rules
Wind Visibility Clouds
80° at 3 knots 7 miles
  • Clear skies
Temperatures Readings
Current 16°C / 61°F
Dewpoint 16°C / 61°F
Humidity 100%
Altimeter 30.01" Hg
Pressure 1016 hPa
Elevation 221
METAR KGCM 220955Z AUTO 08003KT 7SM CLR 16/16 A3001 RMK AO2
Observed Flight Rules
May-22 @ 09:55 UTC
(14 minutes ago)
VFR
Wind Visibility
80° at 3 knots 7 miles
Clouds
  • Clear skies
Temperature Dewpoint
16°C / 61°F 16°C / 61°F
Humidity Altimeter Pressure
100% 30.01" Hg 1016 hPa